Limestone, Pennsylvania
Current Conditions -  °F | °C
As of 6:53 AM on Sunday 23 Nov 2014 (Local Time) from KDUJ Reporting Station
Overcast Overcast  
Wind Chill: 42°   Ceiling: 3800
Heat Index: 45°   Visibility: 10mi
Dew Point: 33°   Wind: 6mph
Humidity: 63%   Direction: 200°SSW
Pressure: 30.09"   Gusts: NA
Location:  41.13°N, 79.33°W
Report Text: KDUJ 231153Z AUTO 20005KT 10SM OVC038 07/01 A3009 RMK AO2 SLP198 60000 70009 T00720006 10078 20056 53006
Loading
Personal Weather Stations






























Interactive Weather Map New forecast layout! Learn more

10-Day Weather Forecast

Advertisements
Track Severe Weather on mobile